Time;durP1;ratioP1;P1;durP2;ratioP2;P2;SDS_P1;SDS_P2;PMS_P1;PMS_P2;Temp;Humidity;BMP_temperature;BMP_pressure;BME280_temperature;BME280_humidity;BME280_pressure;Samples;Min_cycle;Max_cycle;Signal;HPM_P1;HPM_P2
2023/07/23 00:01:22;;;;;;;0.10;0.10;;;;;;;21.71;72.58;100984.75;5028985;28;20025;-62
2023/07/23 00:03:48;;;;;;;0.10;0.10;;;;;;;20.97;76.18;100979.94;5029382;28;20079;-63
2023/07/23 00:06:13;;;;;;;0.10;0.10;;;;;;;20.76;77.33;100984.81;5029190;28;20038;-63
2023/07/23 00:08:38;;;;;;;0.10;0.10;;;;;;;20.86;77.88;100981.97;5029213;28;20037;-62
2023/07/23 00:11:04;;;;;;;0.10;0.10;;;;;;;21.42;73.27;100987.63;5029123;28;20034;-61
2023/07/23 00:13:29;;;;;;;0.10;0.10;;;;;;;20.20;78.61;100982.88;5029319;28;20347;-62
2023/07/23 00:15:55;;;;;;;0.10;0.10;;;;;;;20.95;75.67;100979.41;5029425;28;20033;-62
2023/07/23 00:18:20;;;;;;;0.10;0.10;;;;;;;20.98;75.16;100981.56;5028817;28;20091;-62
2023/07/23 00:20:46;;;;;;;0.10;0.10;;;;;;;21.20;74.74;100981.88;5029037;28;20067;-62
2023/07/23 00:23:11;;;;;;;0.10;0.10;;;;;;;21.24;73.97;100977.47;5029030;28;20033;-62
2023/07/23 00:25:37;;;;;;;0.10;0.10;;;;;;;21.08;75.25;100973.28;5028974;28;20041;-62
2023/07/23 00:28:02;;;;;;;0.05;0.05;;;;;;;20.72;75.21;100963.81;5029558;28;20029;-62
2023/07/23 00:30:27;;;;;;;0.10;0.10;;;;;;;21.36;74.12;100955.16;5029143;28;20436;-63
2023/07/23 00:32:53;;;;;;;0.10;0.10;;;;;;;21.28;74.87;100955.81;5032843;28;20038;-64
2023/07/23 00:35:20;;;;;;;0.10;0.10;;;;;;;21.94;71.61;100942.84;5032485;28;20088;-62
2023/07/23 00:37:45;;;;;;;0.10;0.10;;;;;;;21.75;72.24;100942.03;5033081;28;20034;-63
2023/07/23 00:40:11;;;;;;;0.10;0.10;;;;;;;21.03;76.27;100932.34;5033484;28;20211;-63
2023/07/23 00:42:37;;;;;;;0.10;0.10;;;;;;;22.09;71.02;100934.41;5032503;28;20037;-64
2023/07/23 00:45:02;;;;;;;0.10;0.10;;;;;;;22.25;69.64;100940.44;5050370;28;20029;-62
2023/07/23 00:47:28;;;;;;;0.10;0.10;;;;;;;22.35;69.59;100932.84;5052216;28;20041;-62
2023/07/23 00:49:53;;;;;;;0.10;0.10;;;;;;;22.26;70.40;100931.91;5052590;28;20120;-64
2023/07/23 00:52:19;;;;;;;0.10;0.10;;;;;;;22.26;70.53;100917.41;5052121;28;20104;-63
2023/07/23 00:54:44;;;;;;;0.10;0.10;;;;;;;21.74;72.00;100916.56;5052457;28;20047;-62
2023/07/23 00:57:11;;;;;;;0.10;0.10;;;;;;;22.02;70.98;100912.06;5052172;28;20048;-62
2023/07/23 00:59:37;;;;;;;0.10;0.10;;;;;;;22.37;70.13;100905.13;5051964;28;20086;-63
2023/07/23 01:02:03;;;;;;;0.10;0.10;;;;;;;22.21;71.04;100906.56;5051647;28;20025;-63
2023/07/23 01:04:30;;;;;;;0.10;0.10;;;;;;;22.26;70.36;100903.72;5051437;28;20501;-62
2023/07/23 01:06:57;;;;;;;0.10;0.10;;;;;;;22.37;69.93;100889.53;5052183;28;20037;-62
2023/07/23 01:09:24;;;;;;;0.05;0.05;;;;;;;22.53;69.14;100888.13;5051707;28;20171;-63
2023/07/23 01:11:50;;;;;;;0.10;0.10;;;;;;;22.19;70.55;100881.41;5051816;28;20040;-63
2023/07/23 01:14:16;;;;;;;0.10;0.10;;;;;;;22.17;70.53;100878.94;5051921;28;20581;-64
2023/07/23 01:16:43;;;;;;;0.10;0.10;;;;;;;21.51;72.89;100867.44;5037052;28;20073;-62
2023/07/23 01:19:11;;;;;;;0.10;0.10;;;;;;;21.92;71.26;100867.63;5032362;28;20427;-61
2023/07/23 01:21:36;;;;;;;0.10;0.10;;;;;;;21.90;70.94;100858.91;5031122;28;20033;-63
2023/07/23 01:24:02;;;;;;;0.10;0.10;;;;;;;21.74;71.38;100861.03;5031598;28;20045;-62
2023/07/23 01:26:27;;;;;;;0.10;0.10;;;;;;;21.85;71.84;100854.34;5031683;28;20029;-61
2023/07/23 01:28:53;;;;;;;0.10;0.10;;;;;;;21.29;73.88;100843.44;5031770;28;20087;-63
2023/07/23 01:31:18;;;;;;;0.10;0.10;;;;;;;21.72;72.63;100844.94;5031805;28;20545;-63
2023/07/23 01:33:45;;;;;;;0.10;0.10;;;;;;;22.14;70.15;100841.22;5032149;28;20033;-64
2023/07/23 01:36:11;;;;;;;0.00;0.00;;;;;;;22.04;70.50;100837.84;5031581;28;20421;-62
2023/07/23 01:38:36;;;;;;;0.10;0.10;;;;;;;22.16;70.45;100828.06;5031355;28;20077;-63
2023/07/23 01:41:02;;;;;;;0.10;0.10;;;;;;;21.57;71.87;100822.50;5031328;28;20057;-63
2023/07/23 01:43:28;;;;;;;0.10;0.10;;;;;;;21.69;72.58;100831.06;5032111;28;20098;-63
2023/07/23 01:45:54;;;;;;;0.10;0.10;;;;;;;21.42;72.91;100830.94;5052034;28;20131;-63
2023/07/23 01:48:21;;;;;;;0.10;0.10;;;;;;;21.53;73.23;100826.94;5033872;28;20041;-64
2023/07/23 01:50:47;;;;;;;0.10;0.10;;;;;;;22.09;71.13;100827.66;5031188;28;20037;-63
2023/07/23 01:53:12;;;;;;;0.10;0.10;;;;;;;21.84;71.77;100826.16;5031534;28;20032;-63
2023/07/23 01:55:37;;;;;;;0.05;0.05;;;;;;;21.83;71.60;100826.47;5031043;28;20064;-64
2023/07/23 01:58:03;;;;;;;0.10;0.10;;;;;;;21.67;72.04;100828.63;5031462;28;20079;-63
2023/07/23 02:00:28;;;;;;;0.10;0.10;;;;;;;21.92;71.43;100824.66;5030943;28;20037;-62
2023/07/23 02:02:54;;;;;;;0.10;0.10;;;;;;;22.10;71.04;100821.06;5031163;28;20414;-62
2023/07/23 02:05:21;;;;;;;0.10;0.10;;;;;;;21.96;72.10;100816.66;5031053;28;20308;-63
2023/07/23 02:07:46;;;;;;;0.05;0.05;;;;;;;21.72;72.25;100809.38;5031098;28;20502;-62
2023/07/23 02:10:12;;;;;;;0.10;0.10;;;;;;;21.71;72.47;100807.75;5031520;28;20021;-62
2023/07/23 02:12:38;;;;;;;0.10;0.10;;;;;;;21.38;73.55;100808.03;5031162;28;20033;-62
2023/07/23 02:15:04;;;;;;;0.10;0.10;;;;;;;21.29;73.62;100807.06;5029736;28;20532;-63
2023/07/23 02:17:29;;;;;;;0.10;0.10;;;;;;;21.48;73.95;100807.88;5010844;28;20524;-61
2023/07/23 02:19:54;;;;;;;0.10;0.10;;;;;;;21.63;72.86;100802.16;5015857;28;20160;-61
2023/07/23 02:22:20;;;;;;;0.10;0.10;;;;;;;21.67;73.17;100793.06;5030656;28;20029;-62
2023/07/23 02:24:45;;;;;;;0.10;0.10;;;;;;;21.78;72.51;100794.50;5013046;28;20033;-63
2023/07/23 02:27:11;;;;;;;0.20;0.20;;;;;;;21.83;71.83;100785.44;5030496;28;20030;-63
2023/07/23 02:29:36;;;;;;;0.10;0.10;;;;;;;21.91;71.70;100775.72;5030769;28;20041;-62
2023/07/23 02:32:02;;;;;;;0.10;0.10;;;;;;;21.61;72.29;100791.53;5030490;28;20040;-63
2023/07/23 02:34:28;;;;;;;0.10;0.10;;;;;;;22.00;70.92;100780.19;5030440;28;20435;-63
2023/07/23 02:36:54;;;;;;;0.10;0.10;;;;;;;21.57;72.60;100774.09;5030888;28;20021;-61
2023/07/23 02:39:19;;;;;;;0.10;0.10;;;;;;;21.74;72.35;100782.53;5030248;28;20048;-63
2023/07/23 02:41:44;;;;;;;0.10;0.10;;;;;;;21.83;71.85;100769.00;5023199;28;20052;-63
2023/07/23 02:44:12;;;;;;;0.10;0.10;;;;;;;22.18;70.38;100764.78;5028255;28;20473;-62
2023/07/23 02:46:37;;;;;;;0.10;0.10;;;;;;;21.85;71.25;100761.31;5050204;28;20052;-64
2023/07/23 02:49:03;;;;;;;0.10;0.10;;;;;;;22.15;70.47;100757.97;5050334;28;20029;-62
2023/07/23 02:51:28;;;;;;;0.10;0.10;;;;;;;21.99;70.83;100745.72;5050365;28;20037;-62
2023/07/23 02:53:54;;;;;;;0.10;0.10;;;;;;;21.95;71.50;100746.63;5031190;28;20037;-63
2023/07/23 02:56:19;;;;;;;0.10;0.10;;;;;;;22.13;70.58;100738.31;5050086;28;20082;-62
2023/07/23 02:58:45;;;;;;;0.10;0.10;;;;;;;22.17;70.15;100733.06;5050105;28;20603;-61
2023/07/23 03:01:10;;;;;;;0.10;0.10;;;;;;;22.04;70.91;100733.84;5050154;28;20385;-62
2023/07/23 03:03:36;;;;;;;0.10;0.10;;;;;;;21.66;71.97;100733.19;5049764;28;20037;-63
2023/07/23 03:06:02;;;;;;;0.10;0.10;;;;;;;21.72;71.39;100732.78;5049536;28;20045;-62
2023/07/23 03:08:28;;;;;;;0.10;0.10;;;;;;;21.84;71.08;100724.94;5049894;28;20037;-62
2023/07/23 03:10:53;;;;;;;0.00;0.00;;;;;;;21.43;72.42;100724.00;5049997;28;20493;-62
2023/07/23 03:13:19;;;;;;;0.10;0.10;;;;;;;21.48;72.51;100717.66;5049594;28;20035;-62
2023/07/23 03:15:44;;;;;;;0.10;0.10;;;;;;;21.62;72.56;100716.56;5033516;28;20056;-62
2023/07/23 03:18:10;;;;;;;0.10;0.10;;;;;;;21.69;71.71;100716.16;5029634;28;20045;-64
2023/07/23 03:20:35;;;;;;;0.10;0.10;;;;;;;21.75;70.96;100709.50;5010855;28;20038;-63
2023/07/23 03:23:01;;;;;;;0.10;0.10;;;;;;;21.82;71.15;100709.91;5029568;28;20069;-62
2023/07/23 03:25:26;;;;;;;0.10;0.10;;;;;;;22.01;70.51;100696.16;5029550;28;20107;-63
2023/07/23 03:27:52;;;;;;;0.10;0.10;;;;;;;22.00;70.05;100694.53;5029885;28;20099;-65
2023/07/23 03:30:17;;;;;;;0.10;0.10;;;;;;;21.70;71.25;100699.44;5029385;28;20046;-62
2023/07/23 03:32:42;;;;;;;0.10;0.10;;;;;;;22.20;69.66;100694.94;5029402;28;20394;-63
2023/07/23 03:35:08;;;;;;;0.10;0.10;;;;;;;22.40;68.87;100696.44;5029119;28;20060;-63
2023/07/23 03:37:33;;;;;;;0.10;0.10;;;;;;;22.12;69.31;100698.38;5029393;28;20076;-63
2023/07/23 03:39:59;;;;;;;0.10;0.10;;;;;;;22.16;69.83;100699.41;5030191;28;20017;-63
2023/07/23 03:42:24;;;;;;;0.10;0.10;;;;;;;22.10;70.01;100697.06;5028830;28;20042;-63
2023/07/23 03:44:50;;;;;;;0.10;0.10;;;;;;;22.18;69.90;100696.34;5028455;28;20029;-64
2023/07/23 03:47:17;;;;;;;0.10;0.10;;;;;;;22.25;69.82;100688.56;5028933;28;20121;-63
2023/07/23 03:49:43;;;;;;;0.10;0.10;;;;;;;22.14;70.11;100682.47;5028859;28;20493;-62
2023/07/23 03:52:09;;;;;;;0.10;0.10;;;;;;;22.28;69.90;100680.53;5029532;28;20029;-63
2023/07/23 03:54:35;;;;;;;0.10;0.10;;;;;;;22.27;69.84;100678.91;5029209;28;20184;-62
2023/07/23 03:57:02;;;;;;;0.10;0.10;;;;;;;22.18;69.37;100677.19;5029053;28;20037;-62
2023/07/23 03:59:38;;;;;;;0.10;0.10;;;;;;;21.87;71.95;100685.22;5029238;28;20136;-62
2023/07/23 04:02:04;;;;;;;0.10;0.10;;;;;;;21.94;71.30;100684.78;5017395;28;20100;-62
2023/07/23 04:04:29;;;;;;;0.00;0.00;;;;;;;22.35;69.18;100677.34;5008559;28;20521;-62
2023/07/23 04:06:54;;;;;;;0.10;0.10;;;;;;;21.73;70.76;100676.97;5032457;28;20030;-62
2023/07/23 04:09:20;;;;;;;0.00;0.00;;;;;;;22.02;70.00;100673.13;5032392;28;20018;-62
2023/07/23 04:11:46;;;;;;;0.10;0.10;;;;;;;22.20;69.76;100658.53;5026619;28;20040;-63
2023/07/23 04:14:12;;;;;;;0.10;0.10;;;;;;;22.31;69.14;100655.25;5032659;28;20030;-63
2023/07/23 04:16:37;;;;;;;0.10;0.10;;;;;;;22.31;69.55;100649.00;5033324;28;20476;-63
2023/07/23 04:19:03;;;;;;;0.10;0.10;;;;;;;22.19;70.11;100649.50;5032550;28;20034;-62
2023/07/23 04:21:28;;;;;;;0.10;0.10;;;;;;;21.93;71.21;100642.13;5033203;28;20088;-62
2023/07/23 04:23:55;;;;;;;0.10;0.10;;;;;;;22.13;69.83;100642.50;5033024;28;20080;-63
2023/07/23 04:26:21;;;;;;;0.10;0.10;;;;;;;22.13;69.55;100636.25;5032917;28;20087;-62
2023/07/23 04:28:47;;;;;;;0.10;0.10;;;;;;;22.23;69.07;100639.56;5032959;28;20401;-64
2023/07/23 04:31:13;;;;;;;0.10;0.10;;;;;;;22.22;69.15;100632.47;5033413;28;20033;-61
2023/07/23 04:33:39;;;;;;;0.10;0.10;;;;;;;22.40;68.54;100631.53;5032592;28;20450;-63
2023/07/23 04:36:07;;;;;;;0.10;0.10;;;;;;;22.28;69.29;100635.91;5032729;28;20440;-62
2023/07/23 04:38:33;;;;;;;0.10;0.10;;;;;;;22.33;69.45;100624.81;5032719;28;20080;-63
2023/07/23 04:40:58;;;;;;;0.10;0.10;;;;;;;22.34;69.76;100624.53;5032542;28;20037;-63
2023/07/23 04:43:24;;;;;;;0.10;0.10;;;;;;;22.19;70.06;100622.13;5032184;28;20032;-61
2023/07/23 04:45:49;;;;;;;0.10;0.10;;;;;;;22.27;69.35;100609.66;5033146;28;20033;-61
2023/07/23 04:48:16;;;;;;;0.03;0.03;;;;;;;22.40;69.16;100614.28;5032636;28;20148;-62
2023/07/23 04:50:41;;;;;;;0.00;0.00;;;;;;;22.21;69.84;100617.16;5032375;28;20516;-63
2023/07/23 04:53:07;;;;;;;0.08;0.08;;;;;;;22.23;70.30;100603.19;5032300;28;20038;-63
2023/07/23 04:55:33;;;;;;;0.10;0.10;;;;;;;21.78;71.49;100599.44;5032274;28;20037;-61
2023/07/23 04:57:58;;;;;;;0.00;0.00;;;;;;;22.18;70.48;100601.34;5032518;28;20119;-62
2023/07/23 05:00:24;;;;;;;0.10;0.10;;;;;;;22.21;71.03;100602.69;5031961;28;20115;-64
2023/07/23 05:02:49;;;;;;;0.10;0.10;;;;;;;22.06;71.28;100592.88;5032175;28;20030;-63
2023/07/23 05:05:15;;;;;;;0.00;0.00;;;;;;;22.45;70.44;100592.25;5041620;28;20055;-62
2023/07/23 05:07:40;;;;;;;0.08;0.08;;;;;;;22.31;70.37;100599.72;5040422;28;20517;-62
2023/07/23 05:10:06;;;;;;;0.00;0.00;;;;;;;21.65;73.00;100592.88;5030837;28;20088;-62
2023/07/23 05:12:32;;;;;;;0.10;0.10;;;;;;;22.10;71.76;100593.06;5032034;28;20071;-62
2023/07/23 05:15:09;;;;;;;0.10;0.10;;;;;;;22.13;71.78;100597.94;5031618;28;20037;-63
2023/07/23 05:17:35;;;;;;;0.00;0.00;;;;;;;22.03;71.56;100588.00;5031135;28;20412;-62
2023/07/23 05:20:00;;;;;;;0.10;0.10;;;;;;;20.97;76.14;100597.44;5031421;28;20030;-63
2023/07/23 05:22:25;;;;;;;0.00;0.00;;;;;;;21.76;72.99;100597.03;5030125;28;20033;-62
2023/07/23 05:24:51;;;;;;;0.08;0.08;;;;;;;22.08;72.76;100596.09;5032334;28;20028;-63
2023/07/23 05:27:16;;;;;;;0.10;0.10;;;;;;;22.03;72.58;100590.75;5031679;28;20100;-61
2023/07/23 05:29:41;;;;;;;0.08;0.08;;;;;;;22.25;71.70;100588.03;5031318;28;20033;-63
2023/07/23 05:32:07;;;;;;;0.00;0.00;;;;;;;21.80;73.14;100591.75;5031550;28;20088;-63
2023/07/23 05:34:33;;;;;;;0.10;0.10;;;;;;;21.87;72.44;100591.38;5031814;28;20542;-63
2023/07/23 05:36:58;;;;;;;0.10;0.10;;;;;;;21.96;71.66;100582.13;5032005;28;20539;-63
2023/07/23 05:39:23;;;;;;;0.10;0.10;;;;;;;22.16;70.91;100575.41;5031516;28;20049;-63
2023/07/23 05:41:49;;;;;;;0.10;0.10;;;;;;;22.17;70.83;100582.50;5031254;28;20029;-63
2023/07/23 05:44:14;;;;;;;0.10;0.10;;;;;;;22.42;70.53;100580.00;5042952;28;20037;-62
2023/07/23 05:46:40;;;;;;;0.10;0.10;;;;;;;21.94;71.90;100578.91;5050899;28;20094;-62
2023/07/23 05:49:05;;;;;;;0.03;0.03;;;;;;;22.22;70.74;100571.44;5051754;28;20083;-62
2023/07/23 05:51:30;;;;;;;0.03;0.03;;;;;;;21.59;72.68;100580.44;5051287;28;20455;-62
2023/07/23 05:53:56;;;;;;;0.10;0.10;;;;;;;22.48;70.05;100572.47;5033375;28;20029;-61
2023/07/23 05:56:21;;;;;;;0.10;0.10;;;;;;;22.35;69.51;100568.66;5051275;28;20033;-62
2023/07/23 05:58:47;;;;;;;0.00;0.00;;;;;;;21.76;72.03;100577.06;5051082;28;20041;-63
2023/07/23 06:01:12;;;;;;;0.10;0.10;;;;;;;22.00;71.18;100574.94;5050967;28;20079;-62
2023/07/23 06:03:38;;;;;;;0.00;0.00;;;;;;;22.33;69.50;100573.63;5041603;28;20532;-61
2023/07/23 06:06:03;;;;;;;0.00;0.00;;;;;;;21.98;70.36;100576.34;5030764;28;20057;-64
2023/07/23 06:08:28;;;;;;;0.10;0.10;;;;;;;21.66;73.20;100569.09;5030983;28;20037;-63
2023/07/23 06:10:54;;;;;;;0.00;0.00;;;;;;;22.47;70.06;100568.09;5031128;28;20037;-63
2023/07/23 06:13:19;;;;;;;0.10;0.10;;;;;;;21.94;71.53;100565.22;5030771;28;20030;-62
2023/07/23 06:15:45;;;;;;;0.10;0.10;;;;;;;22.56;69.78;100569.00;5031371;28;20485;-62
2023/07/23 06:18:10;;;;;;;0.10;0.10;;;;;;;22.56;69.67;100564.28;5030499;28;20050;-63
2023/07/23 06:20:35;;;;;;;0.00;0.00;;;;;;;22.15;71.68;100571.84;5012247;28;20118;-62
2023/07/23 06:23:01;;;;;;;0.10;0.10;;;;;;;21.90;72.18;100575.16;5030788;28;20459;-63
2023/07/23 06:25:26;;;;;;;0.00;0.00;;;;;;;21.51;74.22;100574.84;5030713;28;20032;-62
2023/07/23 06:27:52;;;;;;;0.00;0.00;;;;;;;21.79;72.60;100571.81;5030294;28;20030;-63
2023/07/23 06:30:17;;;;;;;0.10;0.10;;;;;;;21.60;74.05;100576.56;5030153;28;20037;-63
2023/07/23 06:32:42;;;;;;;0.10;0.10;;;;;;;20.76;76.51;100583.28;5030446;28;20034;-63
2023/07/23 06:35:10;;;;;;;0.10;0.10;;;;;;;20.60;77.69;100578.41;5030228;28;20266;-63
2023/07/23 06:37:37;;;;;;;0.10;0.10;;;;;;;21.12;75.28;100579.97;5030691;28;20300;-62
2023/07/23 06:40:03;;;;;;;0.17;0.17;;;;;;;20.92;76.52;100592.03;5013398;28;20071;-62
2023/07/23 06:42:28;;;;;;;0.10;0.10;;;;;;;20.94;76.15;100584.34;5030076;28;20421;-63
2023/07/23 06:44:54;;;;;;;0.10;0.10;;;;;;;21.07;76.44;100591.78;5029963;28;20490;-62
2023/07/23 06:47:19;;;;;;;0.10;0.10;;;;;;;20.89;75.73;100590.72;5030159;28;20037;-64
2023/07/23 06:49:45;;;;;;;0.10;0.10;;;;;;;21.14;75.57;100585.94;5030152;28;20037;-64
2023/07/23 06:52:10;;;;;;;0.10;0.10;;;;;;;21.02;76.06;100585.63;5030775;28;20473;-64
2023/07/23 06:54:40;;;;;;;0.10;0.10;;;;;;;20.56;78.09;100602.72;5030263;28;20038;-63
2023/07/23 06:57:06;;;;;;;0.10;0.10;;;;;;;20.81;77.92;100587.88;5028900;28;20033;-64
2023/07/23 06:59:32;;;;;;;0.10;0.10;;;;;;;20.59;79.25;100582.22;5029719;28;20512;-62
2023/07/23 07:01:57;;;;;;;0.10;0.10;;;;;;;20.45;79.64;100584.06;5030034;28;20049;-63
2023/07/23 07:04:22;;;;;;;0.00;0.00;;;;;;;20.54;78.34;100588.56;5029494;28;20440;-63
2023/07/23 07:06:48;;;;;;;0.10;0.10;;;;;;;20.49;79.49;100576.91;5030236;28;20061;-63
2023/07/23 07:09:13;;;;;;;0.10;0.10;;;;;;;21.03;77.15;100585.31;5029926;28;20025;-62
2023/07/23 07:11:39;;;;;;;0.10;0.10;;;;;;;20.85;78.08;100588.91;5029904;28;20034;-62
2023/07/23 07:14:04;;;;;;;0.10;0.10;;;;;;;20.42;80.75;100590.16;5030044;28;20037;-62
2023/07/23 07:16:30;;;;;;;0.10;0.10;;;;;;;20.97;79.11;100575.56;5030016;28;20033;-63
2023/07/23 07:18:55;;;;;;;0.10;0.10;;;;;;;20.20;81.63;100593.47;5030017;28;20037;-63
2023/07/23 07:21:21;;;;;;;0.10;0.10;;;;;;;20.62;81.67;100587.06;5011988;28;20041;-63
2023/07/23 07:23:46;;;;;;;0.10;0.10;;;;;;;20.00;83.40;100590.97;5029607;28;20033;-64
2023/07/23 07:26:11;;;;;;;0.10;0.10;;;;;;;20.14;83.60;100589.97;5029747;28;20030;-61
2023/07/23 07:28:37;;;;;;;0.10;0.10;;;;;;;20.65;81.98;100584.59;5029046;28;20083;-61
2023/07/23 07:31:03;;;;;;;0.10;0.10;;;;;;;20.60;81.40;100583.84;5029950;28;20030;-61
2023/07/23 07:33:29;;;;;;;0.10;0.10;;;;;;;20.27;83.63;100584.88;5029241;28;20033;-62
2023/07/23 07:35:56;;;;;;;0.10;0.10;;;;;;;20.67;81.64;100593.28;5029386;28;20033;-65
2023/07/23 07:38:23;;;;;;;0.10;0.10;;;;;;;20.28;82.04;100590.06;5029417;28;20037;-61
2023/07/23 07:40:50;;;;;;;0.10;0.10;;;;;;;20.60;82.07;100594.78;5029347;28;20116;-63
2023/07/23 07:43:15;;;;;;;0.10;0.10;;;;;;;19.98;83.63;100588.56;5029187;28;20033;-64
2023/07/23 07:45:41;;;;;;;0.10;0.10;;;;;;;20.21;83.54;100588.78;5030089;28;20085;-62
2023/07/23 07:48:06;;;;;;;0.10;0.10;;;;;;;20.80;80.90;100586.22;5029747;28;20042;-62
2023/07/23 07:50:32;;;;;;;0.10;0.10;;;;;;;20.76;81.08;100590.66;5029031;28;20033;-62
2023/07/23 07:52:57;;;;;;;0.10;0.10;;;;;;;21.19;78.70;100583.94;5029112;28;20497;-64
2023/07/23 07:55:22;;;;;;;0.10;0.10;;;;;;;20.44;81.70;100587.94;5029140;28;20085;-63
2023/07/23 07:57:48;;;;;;;0.10;0.10;;;;;;;20.93;79.36;100583.53;5029964;28;20022;-63
2023/07/23 08:00:14;;;;;;;0.15;0.15;;;;;;;21.12;79.78;100590.91;5028768;28;20061;-63
2023/07/23 08:02:40;;;;;;;0.10;0.10;;;;;;;21.42;79.80;100579.41;5028795;28;20076;-63
2023/07/23 08:05:07;;;;;;;0.10;0.10;;;;;;;20.80;80.66;100586.22;5028523;28;20108;-62
2023/07/23 08:07:33;;;;;;;0.10;0.10;;;;;;;21.14;78.35;100591.41;5028907;28;20040;-62
2023/07/23 08:09:59;;;;;;;0.10;0.10;;;;;;;20.64;80.42;100585.69;5029721;28;20033;-63
2023/07/23 08:12:25;;;;;;;0.10;0.10;;;;;;;21.16;78.81;100594.66;5029141;28;20165;-65
2023/07/23 08:14:53;;;;;;;0.10;0.10;;;;;;;21.51;77.87;100586.59;5028576;28;20091;-63
2023/07/23 08:17:20;;;;;;;0.08;0.08;;;;;;;21.14;78.67;100591.41;5028853;28;20083;-61
2023/07/23 08:19:45;;;;;;;0.10;0.10;;;;;;;21.12;78.95;100590.91;5011485;28;20238;-62
2023/07/23 08:22:11;;;;;;;0.10;0.10;;;;;;;20.92;79.88;100601.06;5029549;28;20080;-64
2023/07/23 08:24:37;;;;;;;0.10;0.10;;;;;;;21.15;79.58;100599.31;5029027;28;20029;-62
2023/07/23 08:27:06;;;;;;;0.10;0.10;;;;;;;20.85;80.40;100600.59;5028576;28;20106;-63
2023/07/23 08:29:33;;;;;;;0.00;0.00;;;;;;;21.30;78.63;100595.50;5010905;28;20061;-63
2023/07/23 08:31:59;;;;;;;0.10;0.10;;;;;;;20.92;80.87;100594.78;5028999;28;20057;-62
2023/07/23 08:34:26;;;;;;;0.00;0.00;;;;;;;20.42;82.00;100595.59;5029381;28;20025;-63
2023/07/23 08:36:52;;;;;;;0.10;0.10;;;;;;;20.70;81.31;100597.31;5029557;28;20021;-63
2023/07/23 08:39:18;;;;;;;0.08;0.08;;;;;;;21.17;79.39;100597.09;5028911;28;20038;-63
2023/07/23 08:42:14;;;;;;;0.10;0.10;;;;;;;20.81;80.75;100596.84;5028795;28;20390;-63
2023/07/23 08:44:57;;;;;;;0.00;0.00;;;;;;;21.11;80.74;100602.97;5028684;28;20057;-64
2023/07/23 08:47:27;;;;;;;0.10;0.10;;;;;;;21.38;79.45;100598.34;5028460;28;20124;-63
2023/07/23 08:49:53;;;;;;;0.10;0.10;;;;;;;21.11;79.32;100600.22;5028861;28;20036;-62
2023/07/23 08:52:19;;;;;;;0.00;0.00;;;;;;;20.96;80.05;100602.06;5029954;28;20100;-62
2023/07/23 08:54:46;;;;;;;0.10;0.10;;;;;;;20.89;78.45;100606.31;5032798;28;20029;-64
2023/07/23 08:57:11;;;;;;;0.10;0.10;;;;;;;20.98;80.03;100601.78;5032270;28;20124;-62
2023/07/23 08:59:39;;;;;;;0.00;0.00;;;;;;;21.89;77.38;100597.34;5014461;28;20122;-62
2023/07/23 09:02:07;;;;;;;0.10;0.10;;;;;;;21.13;79.36;100596.06;5032017;28;20035;-63
2023/07/23 09:04:33;;;;;;;0.10;0.10;;;;;;;21.22;78.67;100601.66;5031803;28;20025;-62
2023/07/23 09:07:00;;;;;;;0.10;0.10;;;;;;;21.03;80.17;100607.16;5031137;28;20128;-63
2023/07/23 09:09:26;;;;;;;0.10;0.10;;;;;;;20.67;81.50;100611.59;5031891;28;20532;-64
2023/07/23 09:11:51;;;;;;;0.10;0.10;;;;;;;21.19;79.43;100605.78;5031899;28;20045;-63
2023/07/23 09:14:17;;;;;;;0.10;0.10;;;;;;;21.64;77.94;100599.44;5031647;28;20041;-61
2023/07/23 09:16:45;;;;;;;0.03;0.03;;;;;;;21.21;79.58;100603.56;5031856;28;20057;-64
2023/07/23 09:19:13;;;;;;;0.10;0.10;;;;;;;20.79;81.32;100604.56;5032551;28;20571;-63
2023/07/23 09:21:40;;;;;;;0.10;0.10;;;;;;;21.44;79.51;100596.31;5031968;28;20474;-61
2023/07/23 09:24:07;;;;;;;0.10;0.10;;;;;;;21.05;80.78;100604.16;5031859;28;20471;-63
2023/07/23 09:26:35;;;;;;;0.10;0.10;;;;;;;20.86;81.33;100604.97;5031674;28;20043;-63
2023/07/23 09:29:01;;;;;;;0.10;0.10;;;;;;;21.50;77.65;100598.63;5031628;28;20042;-62
2023/07/23 09:31:30;;;;;;;0.10;0.10;;;;;;;22.42;75.22;100598.34;5031516;28;20405;-63
2023/07/23 09:33:58;;;;;;;0.00;0.00;;;;;;;21.58;77.93;100592.47;5032305;28;20400;-62
2023/07/23 09:36:25;;;;;;;0.00;0.00;;;;;;;22.12;75.88;100604.50;5031577;28;20447;-61
2023/07/23 09:38:58;;;;;;;0.10;0.10;;;;;;;21.95;77.39;100594.22;5031271;28;20124;-63
2023/07/23 09:41:29;;;;;;;0.00;0.00;;;;;;;21.30;78.71;100603.69;5031665;28;20061;-63
2023/07/23 09:43:54;;;;;;;;;;;;;;;21.87;77.34;100605.88;5031729;28;20041;-63
2023/07/23 09:46:19;;;;;;;0.10;0.10;;;;;;;21.91;76.94;100601.41;5031572;28;19909;-64
2023/07/23 09:49:03;;;;;;;0.03;0.03;;;;;;;21.55;77.98;100603.19;5030111;28;20025;-63
2023/07/23 09:51:31;;;;;;;0.00;0.00;;;;;;;21.64;77.13;100601.41;5031322;28;20044;-63
2023/07/23 09:54:00;;;;;;;0.10;0.10;;;;;;;21.48;78.42;100598.13;5031394;28;20040;-62
2023/07/23 09:56:27;;;;;;;0.00;0.00;;;;;;;21.47;78.03;100596.53;5031430;28;20037;-64
2023/07/23 09:58:54;;;;;;;0.10;0.10;;;;;;;21.36;77.64;100600.56;5031333;28;20033;-62
2023/07/23 10:01:20;;;;;;;0.10;0.10;;;;;;;21.81;76.71;100601.63;5030894;28;20033;-62
2023/07/23 10:03:48;;;;;;;0.10;0.10;;;;;;;22.05;75.88;100607.69;5029991;28;20427;-62
2023/07/23 10:06:20;;;;;;;0.00;0.00;;;;;;;21.41;78.62;100602.38;5030697;28;20045;-62
2023/07/23 10:08:47;;;;;;;0.00;0.00;;;;;;;20.84;80.52;100609.94;5031086;28;20025;-63
2023/07/23 10:11:14;;;;;;;0.10;0.10;;;;;;;21.07;81.15;100612.88;5030547;28;20033;-61
2023/07/23 10:13:41;;;;;;;0.03;0.03;;;;;;;21.82;77.89;100609.50;5030799;28;20546;-63
2023/07/23 10:16:24;;;;;;;0.03;0.03;;;;;;;21.47;78.62;100604.72;5031559;28;20044;-64
2023/07/23 10:18:51;;;;;;;0.10;0.10;;;;;;;22.13;76.95;100603.41;5010854;28;20195;-63
2023/07/23 10:21:18;;;;;;;0.10;0.10;;;;;;;21.95;76.33;100607.06;5027296;28;20041;-61
2023/07/23 10:23:53;;;;;;;0.00;0.00;;;;;;;21.51;78.37;100600.28;5030648;28;20118;-64
2023/07/23 10:26:38;;;;;;;0.10;0.10;;;;;;;21.15;78.85;100621.16;5012534;28;20045;-63
2023/07/23 10:29:13;;;;;;;0.00;0.00;;;;;;;21.73;77.74;100608.59;5030868;28;20087;-61
2023/07/23 10:31:40;;;;;;;0.10;0.10;;;;;;;21.99;76.48;100608.91;5030514;28;20061;-61
2023/07/23 10:34:30;;;;;;;0.10;0.10;;;;;;;22.22;75.71;100607.84;5030888;28;20022;-62
2023/07/23 10:37:18;;;;;;;0.00;0.00;;;;;;;22.11;76.25;100613.84;5030448;28;20481;-62
2023/07/23 10:39:45;;;;;;;0.00;0.00;;;;;;;21.64;78.03;100613.13;5030643;28;20072;-63
2023/07/23 10:42:48;;;;;;;0.00;0.00;;;;;;;21.92;77.69;100600.28;5030124;28;20033;-61
2023/07/23 10:45:17;;;;;;;0.00;0.00;;;;;;;21.52;78.76;100607.34;5029489;28;20041;-62
2023/07/23 10:47:55;;;;;;;0.00;0.00;;;;;;;22.57;75.45;100592.53;5030299;28;20041;-62
2023/07/23 10:50:22;;;;;;;0.10;0.10;;;;;;;22.20;76.64;100595.56;5029966;28;20374;-63
2023/07/23 10:53:08;;;;;;;0.00;0.00;;;;;;;22.62;75.46;100593.22;5029821;28;20493;-62
2023/07/23 10:55:40;;;;;;;0.00;0.00;;;;;;;22.67;74.03;100601.31;5029444;28;20137;-62
2023/07/23 10:58:13;;;;;;;0.00;0.00;;;;;;;22.23;76.64;100597.69;5030468;28;20056;-63
2023/07/23 11:00:44;;;;;;;0.10;0.10;;;;;;;22.20;76.74;100590.09;5029632;28;20041;-62
2023/07/23 11:03:11;;;;;;;;;;;;;;;22.50;75.34;100601.16;5030150;28;20496;-63
2023/07/23 11:05:42;;;;;;;0.00;0.00;;;;;;;21.86;77.58;100612.44;5029574;28;20432;-62
2023/07/23 11:08:18;;;;;;;0.10;0.10;;;;;;;22.67;75.82;100608.72;5030193;28;20037;-73
2023/07/23 11:10:55;;;;;;;0.00;0.00;;;;;;;22.18;76.31;100598.63;5029975;28;20040;-72
2023/07/23 11:13:22;;;;;;;0.00;0.00;;;;;;;22.38;75.75;100611.03;5029778;28;20022;-71
2023/07/23 11:15:48;;;;;;;0.00;0.00;;;;;;;22.13;76.67;100609.66;5029378;28;20432;-73
2023/07/23 11:18:13;;;;;;;0.00;0.00;;;;;;;22.17;75.68;100610.66;5030050;28;20036;-72
2023/07/23 11:20:46;;;;;;;0.00;0.00;;;;;;;22.63;75.90;100611.28;5029911;28;20588;-72
2023/07/23 11:23:12;;;;;;;0.03;0.03;;;;;;;22.59;76.09;100612.22;5029907;28;20072;-72
2023/07/23 11:25:39;;;;;;;0.10;0.10;;;;;;;22.18;76.69;100614.22;5029444;28;20042;-72